Map

Track Data

SID SEASON NUMBER BASIN SUBBASIN NAME ISO_TIME NATURE LAT LON WMO_WIND WMO_PRES WMO_AGENCY TRACK_TYPE DIST2LAND LANDFALL IFLAG USA_AGENCY USA_ATCF_ID USA_LAT USA_LON USA_RECORD USA_STATUS USA_WIND USA_PRES USA_SSHS USA_R34_NE USA_R34_SE USA_R34_SW USA_R34_NW USA_R50_NE USA_R50_SE USA_R50_SW USA_R50_NW USA_R64_NE USA_R64_SE USA_R64_SW USA_R64_NW USA_POCI USA_ROCI USA_RMW USA_EYE TOKYO_LAT TOKYO_LON TOKYO_GRADE TOKYO_WIND TOKYO_PRES TOKYO_R50_DIR TOKYO_R50_LONG TOKYO_R50_SHORT TOKYO_R30_DIR TOKYO_R30_LONG TOKYO_R30_SHORT TOKYO_LAND CMA_LAT CMA_LON CMA_CAT CMA_WIND CMA_PRES HKO_LAT HKO_LON HKO_CAT HKO_WIND HKO_PRES NEWDELHI_LAT NEWDELHI_LON NEWDELHI_GRADE NEWDELHI_WIND NEWDELHI_PRES NEWDELHI_CI NEWDELHI_DP NEWDELHI_POCI REUNION_LAT REUNION_LON REUNION_TYPE REUNION_WIND REUNION_PRES REUNION_TNUM REUNION_CI REUNION_RMW REUNION_R34_NE REUNION_R34_SE REUNION_R34_SW REUNION_R34_NW REUNION_R50_NE REUNION_R50_SE REUNION_R50_SW REUNION_R50_NW REUNION_R64_NE REUNION_R64_SE REUNION_R64_SW REUNION_R64_NW BOM_LAT BOM_LON BOM_TYPE BOM_WIND BOM_PRES BOM_TNUM BOM_CI BOM_RMW BOM_R34_NE BOM_R34_SE BOM_R34_SW BOM_R34_NW BOM_R50_NE BOM_R50_SE BOM_R50_SW BOM_R50_NW BOM_R64_NE BOM_R64_SE BOM_R64_SW BOM_R64_NW BOM_ROCI BOM_POCI BOM_EYE BOM_POS_METHOD BOM_PRES_METHOD NADI_LAT NADI_LON NADI_CAT NADI_WIND NADI_PRES WELLINGTON_LAT WELLINGTON_LON WELLINGTON_WIND WELLINGTON_PRES DS824_LAT DS824_LON DS824_STAGE DS824_WIND DS824_PRES TD9636_LAT TD9636_LON TD9636_STAGE TD9636_WIND TD9636_PRES TD9635_LAT TD9635_LON TD9635_WIND TD9635_PRES TD9635_ROCI NEUMANN_LAT NEUMANN_LON NEUMANN_CLASS NEUMANN_WIND NEUMANN_PRES MLC_LAT MLC_LON MLC_CLASS MLC_WIND MLC_PRES USA_GUST BOM_GUST BOM_GUST_PER REUNION_GUST REUNION_GUST_PER USA_SEAHGT USA_SEARAD_NE USA_SEARAD_SE USA_SEARAD_SW USA_SEARAD_NW STORM_SPEED STORM_DIR
1895179N21088 1895 15 NI BB NOT_NAMED 1895-06-27 15:00:00 NR 20.5000 88.4000 main 123 111 __________O___ -1 20.5000 88.4000 1 5 306
1895179N21088 1895 15 NI BB NOT_NAMED 1895-06-27 18:00:00 NR 20.6343 88.2015 main 111 91 __________P___ -1 20.6343 88.2015 1 5 306
1895179N21088 1895 15 NI BB NOT_NAMED 1895-06-27 21:00:00 NR 20.7749 87.9923 main 91 73 __________P___ -1 20.7749 87.9923 1 6 305
1895179N21088 1895 15 NI BB NOT_NAMED 1895-06-28 00:00:00 TS 20.9624 87.7096 main 73 44 _________OP___ -1 21.1000 87.5000 TC 30 20.9280 87.7620 1 7 305
1895179N21088 1895 15 NI BB NOT_NAMED 1895-06-28 03:00:00 TS 21.1659 87.4017 main 44 10 _________PO___ -1 21.2976 87.2051 TC 30 21.1000 87.5000 1 7 305
1895179N21088 1895 15 NI BB NOT_NAMED 1895-06-28 06:00:00 TS 21.3823 87.0723 main 10 0 _________OP___ -1 21.5000 86.9000 TC 30 21.2940 87.2016 1 8 305
1895179N21088 1895 15 NI BB NOT_NAMED 1895-06-28 09:00:00 TS 21.6039 86.7352 main 0 0 _________PP___ -1 21.7075 86.5850 TC 30 21.5004 86.8855 1 7 306
1895179N21088 1895 15 NI BB NOT_NAMED 1895-06-28 12:00:00 TS 21.8032 86.4383 main 0 0 _________OP___ -1 21.9000 86.3000 TC 30 21.7065 86.5766 1 6 306
1895179N21088 1895 15 NI BB NOT_NAMED 1895-06-28 15:00:00 TS 21.9787 86.1887 main 0 0 _________PO___ -1 22.0574 86.0774 TC 30 21.9000 86.3000 1 5 310
1895179N21088 1895 15 NI BB NOT_NAMED 1895-06-28 18:00:00 TS 22.1236 86.0224 main 0 0 _________OP___ -1 22.2000 85.9000 TC 30 22.0472 86.1447 1 4 317
1895179N21088 1895 15 NI BB NOT_NAMED 1895-06-28 21:00:00 TS 22.2591 85.9052 main 0 0 _________PP___ -1 22.3347 85.7946 TC 30 22.1835 86.0157 1 4 317
1895179N21088 1895 15 NI BB NOT_NAMED 1895-06-29 00:00:00 TS 22.4141 85.7269 main 0 0 _________OP___ -1 22.5000 85.6000 TC 30 22.3281 85.8539 1 6 306
1895179N21088 1895 15 NI BB NOT_NAMED 1895-06-29 03:00:00 TS 22.6176 85.3801 main 0 0 _________PO___ -1 22.7351 85.1601 TC 30 22.5000 85.6000 1 9 299
1895179N21088 1895 15 NI BB NOT_NAMED 1895-06-29 06:00:00 TS 22.8511 84.8758 main 0 0 _________OP___ -1 23.0000 84.6000 TC 30 22.7021 85.1516 1 11 296
1895179N21088 1895 15 NI BB NOT_NAMED 1895-06-29 09:00:00 TS 23.0847 84.3226 main 0 0 _________PP___ -1 23.2351 84.0348 TC 30 22.9343 84.6104 1 11 296
1895179N21088 1895 15 NI BB NOT_NAMED 1895-06-29 12:00:00 TS 23.3495 83.7695 main 0 0 _________OP___ -1 23.5000 83.5000 TC 30 23.1990 84.0389 1 11 301
1895179N21088 1895 15 NI BB NOT_NAMED 1895-06-29 15:00:00 TS 23.6636 83.2849 main 0 0 _________PO___ -1 23.8273 83.0698 TC 30 23.5000 83.5000 1 11 310
1895179N21088 1895 15 NI BB NOT_NAMED 1895-06-29 18:00:00 TS 24.0295 82.8749 main 0 0 _________OP___ -1 24.2000 82.7000 TC 30 23.8589 83.0499 1 11 316
1895179N21088 1895 15 NI BB NOT_NAMED 1895-06-29 21:00:00 TS 24.4323 82.4830 main 0 0 _________PP___ -1 24.6150 82.3201 TC 30 24.2496 82.6458 1 10 320
1895179N21088 1895 15 NI BB NOT_NAMED 1895-06-30 00:00:00 TS 24.8202 82.1468 main 0 0 _________OP___ -1 25.0000 82.0000 TC 30 24.6404 82.2937 1 9 322
1895179N21088 1895 15 NI BB NOT_NAMED 1895-06-30 03:00:00 TS 25.1362 81.8848 main 0 0 _________PO___ -1 25.2724 81.7697 TC 30 25.0000 82.0000 1 7 323
1895179N21088 1895 15 NI BB NOT_NAMED 1895-06-30 06:00:00 TS 25.3866 81.6791 main 0 0 _________OP___ -1 25.5000 81.6000 TC 30 25.2732 81.7581 1 6 325
1895179N21088 1895 15 NI BB NOT_NAMED 1895-06-30 09:00:00 TS 25.6284 81.5079 main 0 0 _________PP___ -1 25.7425 81.4424 TC 30 25.5144 81.5735 1 6 330
1895179N21088 1895 15 NI BB NOT_NAMED 1895-06-30 12:00:00 TS 25.8742 81.3636 main 0 0 _________OP___ -1 26.0000 81.3000 TC 30 25.7484 81.4272 1 6 333
1895179N21088 1895 15 NI BB NOT_NAMED 1895-06-30 15:00:00 TS 26.1425 81.2212 main 0 0 _________PO___ -1 26.2850 81.1425 TC 30 26.0000 81.3000 1 6 336
1895179N21088 1895 15 NI BB NOT_NAMED 1895-06-30 18:00:00 TS 26.4217 81.1005 main 0 0 _________OP___ -1 26.6000 81.0000 TC 30 26.2881 81.1758 1 6 341
1895179N21088 1895 15 NI BB NOT_NAMED 1895-06-30 21:00:00 TS 26.7417 80.9867 main 0 0 _________PP___ -1 26.9425 80.8901 TC 30 26.6078 81.0512 1 7 343
1895179N21088 1895 15 NI BB NOT_NAMED 1895-07-01 00:00:00 TS 27.0658 80.8840 main 0 0 _________OP___ -1 27.3000 80.8000 TC 30 26.9487 80.9259 1 6 343
1895179N21088 1895 15 NI BB NOT_NAMED 1895-07-01 03:00:00 NR 27.3000 80.8000 main 0 __________O___ -1 TC 27.3000 80.8000 1 5 341

About IBTrACS Database

This database is a web-friendly format of International Best Track Archive for Climate Stewardship (IBTrACS), a global best track data archive curated by NOAA dating back to 1842.

Updated: 2021-11-26